New Centerville, Idaho
Current Conditions -  °F | °C
As of 6:53 AM on Thursday 23 Oct 2014 (Local Time) from KBOI Reporting Station
Broken Clouds Broken Clouds  
Wind Chill: 52°   Ceiling: 8000
Heat Index: 52°   Visibility: 10mi
Dew Point: 43°   Wind: 13mph
Humidity: 71%   Direction: 110°ESE
Pressure: 30.01"   Gusts: NA
Location:  43.8008°N, 115.834°W
Report Text: KBOI 231253Z 11011KT 10SM SCT065 BKN080 11/06 A3001 RMK AO2 RAE47 SLP152 P0001 T01110061
Loading
Personal Weather Stations






























Interactive Weather Map New forecast layout! Learn more

10-Day Weather Forecast

Advertisements
Track Severe Weather on mobile